sensor_id;sensor_type;location;lat;lon;timestamp;pressure;altitude;pressure_sealevel;temperature;humidity
75157;BME280;63736;50.076;8.198;2022-10-16T00:01:10;99232.66;;;14.06;100.00
75157;BME280;63736;50.076;8.198;2022-10-16T00:03:39;99228.44;;;14.03;100.00
75157;BME280;63736;50.076;8.198;2022-10-16T00:06:06;99227.06;;;13.99;100.00
75157;BME280;63736;50.076;8.198;2022-10-16T00:08:32;99240.63;;;13.98;100.00
75157;BME280;63736;50.076;8.198;2022-10-16T00:11:04;99246.72;;;14.00;100.00
75157;BME280;63736;50.076;8.198;2022-10-16T00:13:30;99247.69;;;13.99;100.00
75157;BME280;63736;50.076;8.198;2022-10-16T00:15:57;99233.97;;;14.02;100.00
75157;BME280;63736;50.076;8.198;2022-10-16T00:18:23;99232.13;;;14.02;100.00
75157;BME280;63736;50.076;8.198;2022-10-16T00:20:49;99238.31;;;14.03;100.00
75157;BME280;63736;50.076;8.198;2022-10-16T00:23:14;99236.34;;;14.05;100.00
75157;BME280;63736;50.076;8.198;2022-10-16T00:25:39;99230.81;;;14.07;100.00
75157;BME280;63736;50.076;8.198;2022-10-16T00:28:05;99236.16;;;14.07;100.00
75157;BME280;63736;50.076;8.198;2022-10-16T00:30:30;99230.63;;;14.08;100.00
75157;BME280;63736;50.076;8.198;2022-10-16T00:32:56;99234.84;;;14.11;100.00
75157;BME280;63736;50.076;8.198;2022-10-16T00:35:21;99239.22;;;14.12;100.00
75157;BME280;63736;50.076;8.198;2022-10-16T00:37:47;99226.63;;;14.12;100.00
75157;BME280;63736;50.076;8.198;2022-10-16T00:40:12;99221.78;;;14.16;100.00
75157;BME280;63736;50.076;8.198;2022-10-16T00:42:38;99226.00;;;14.18;100.00
75157;BME280;63736;50.076;8.198;2022-10-16T00:45:04;99229.03;;;14.24;100.00
75157;BME280;63736;50.076;8.198;2022-10-16T00:47:41;99223.88;;;14.30;100.00
75157;BME280;63736;50.076;8.198;2022-10-16T00:50:27;99240.34;;;14.35;100.00
75157;BME280;63736;50.076;8.198;2022-10-16T00:52:55;99250.78;;;14.38;100.00
75157;BME280;63736;50.076;8.198;2022-10-16T00:55:21;99257.69;;;14.41;100.00
75157;BME280;63736;50.076;8.198;2022-10-16T00:57:47;99262.56;;;14.46;100.00
75157;BME280;63736;50.076;8.198;2022-10-16T01:00:17;99270.16;;;14.50;100.00
75157;BME280;63736;50.076;8.198;2022-10-16T01:02:42;99271.00;;;14.51;100.00
75157;BME280;63736;50.076;8.198;2022-10-16T01:05:08;99246.63;;;14.52;100.00
75157;BME280;63736;50.076;8.198;2022-10-16T01:11:32;99252.25;;;14.59;100.00
75157;BME280;63736;50.076;8.198;2022-10-16T01:13:29;99258.28;;;14.61;100.00
75157;BME280;63736;50.076;8.198;2022-10-16T01:16:03;99250.22;;;14.61;100.00
75157;BME280;63736;50.076;8.198;2022-10-16T01:18:37;99250.91;;;14.63;100.00
75157;BME280;63736;50.076;8.198;2022-10-16T01:21:08;99248.75;;;14.67;100.00
75157;BME280;63736;50.076;8.198;2022-10-16T01:29:07;99242.19;;;14.69;100.00
75157;BME280;63736;50.076;8.198;2022-10-16T01:31:36;99253.97;;;14.68;100.00
75157;BME280;63736;50.076;8.198;2022-10-16T01:37:12;99267.72;;;14.65;100.00
75157;BME280;63736;50.076;8.198;2022-10-16T01:39:41;99271.44;;;14.64;100.00
75157;BME280;63736;50.076;8.198;2022-10-16T01:42:11;99279.34;;;14.66;100.00
75157;BME280;63736;50.076;8.198;2022-10-16T01:44:39;99269.59;;;14.65;100.00
75157;BME280;63736;50.076;8.198;2022-10-16T01:47:08;99272.94;;;14.67;100.00
75157;BME280;63736;50.076;8.198;2022-10-16T01:49:36;99264.88;;;14.67;100.00
75157;BME280;63736;50.076;8.198;2022-10-16T01:52:06;99272.81;;;14.68;100.00
75157;BME280;63736;50.076;8.198;2022-10-16T01:54:35;99272.94;;;14.67;100.00
75157;BME280;63736;50.076;8.198;2022-10-16T01:57:04;99281.16;;;14.65;100.00
75157;BME280;63736;50.076;8.198;2022-10-16T01:59:32;99286.72;;;14.64;100.00
75157;BME280;63736;50.076;8.198;2022-10-16T02:02:05;99286.84;;;14.62;100.00
75157;BME280;63736;50.076;8.198;2022-10-16T02:04:54;99284.16;;;14.62;100.00
75157;BME280;63736;50.076;8.198;2022-10-16T02:07:21;99285.66;;;14.57;100.00
75157;BME280;63736;50.076;8.198;2022-10-16T02:09:47;99292.19;;;14.54;100.00
75157;BME280;63736;50.076;8.198;2022-10-16T02:12:31;99282.81;;;14.58;100.00
75157;BME280;63736;50.076;8.198;2022-10-16T02:14:57;99285.78;;;14.55;100.00
75157;BME280;63736;50.076;8.198;2022-10-16T02:17:23;99281.28;;;14.56;100.00
75157;BME280;63736;50.076;8.198;2022-10-16T02:19:51;99282.97;;;14.57;100.00
75157;BME280;63736;50.076;8.198;2022-10-16T02:22:32;99281.81;;;14.59;100.00
75157;BME280;63736;50.076;8.198;2022-10-16T02:25:03;99288.19;;;14.58;100.00
75157;BME280;63736;50.076;8.198;2022-10-16T02:27:34;99292.84;;;14.56;100.00
75157;BME280;63736;50.076;8.198;2022-10-16T02:30:13;99290.69;;;14.60;100.00
75157;BME280;63736;50.076;8.198;2022-10-16T02:32:41;99287.19;;;14.59;100.00
75157;BME280;63736;50.076;8.198;2022-10-16T02:35:08;99292.38;;;14.61;100.00
75157;BME280;63736;50.076;8.198;2022-10-16T02:37:34;99283.47;;;14.60;100.00
75157;BME280;63736;50.076;8.198;2022-10-16T02:40:00;99297.59;;;14.62;100.00
75157;BME280;63736;50.076;8.198;2022-10-16T02:42:37;99313.44;;;14.65;100.00
75157;BME280;63736;50.076;8.198;2022-10-16T02:45:07;99308.06;;;14.65;100.00
75157;BME280;63736;50.076;8.198;2022-10-16T02:47:33;99303.53;;;14.66;100.00
75157;BME280;63736;50.076;8.198;2022-10-16T02:49:58;99308.91;;;14.66;100.00
75157;BME280;63736;50.076;8.198;2022-10-16T02:52:24;99296.31;;;14.66;100.00
75157;BME280;63736;50.076;8.198;2022-10-16T02:54:49;99282.19;;;14.64;100.00
75157;BME280;63736;50.076;8.198;2022-10-16T02:57:15;99280.78;;;14.60;100.00
75157;BME280;63736;50.076;8.198;2022-10-16T02:59:40;99288.47;;;14.55;100.00
75157;BME280;63736;50.076;8.198;2022-10-16T03:02:05;99289.63;;;14.52;100.00
75157;BME280;63736;50.076;8.198;2022-10-16T03:04:31;99299.56;;;14.52;100.00
75157;BME280;63736;50.076;8.198;2022-10-16T03:06:56;99290.81;;;14.50;100.00
75157;BME280;63736;50.076;8.198;2022-10-16T03:09:21;99288.13;;;14.50;100.00
75157;BME280;63736;50.076;8.198;2022-10-16T03:11:47;99299.91;;;14.49;100.00
75157;BME280;63736;50.076;8.198;2022-10-16T03:14:12;99302.59;;;14.49;100.00
75157;BME280;63736;50.076;8.198;2022-10-16T03:16:37;99309.94;;;14.47;100.00
75157;BME280;63736;50.076;8.198;2022-10-16T03:19:02;99309.94;;;14.47;100.00
75157;BME280;63736;50.076;8.198;2022-10-16T03:21:28;99315.31;;;14.47;100.00
75157;BME280;63736;50.076;8.198;2022-10-16T03:23:53;99309.94;;;14.47;100.00
75157;BME280;63736;50.076;8.198;2022-10-16T03:26:18;99302.88;;;14.46;100.00
75157;BME280;63736;50.076;8.198;2022-10-16T03:28:43;99318.00;;;14.47;100.00
75157;BME280;63736;50.076;8.198;2022-10-16T03:31:09;99318.84;;;14.47;100.00
75157;BME280;63736;50.076;8.198;2022-10-16T03:33:34;99311.63;;;14.48;100.00
75157;BME280;63736;50.076;8.198;2022-10-16T03:35:59;99319.88;;;14.46;100.00
75157;BME280;63736;50.076;8.198;2022-10-16T03:38:25;99320.88;;;14.45;100.00
75157;BME280;63736;50.076;8.198;2022-10-16T03:40:50;99323.38;;;14.47;100.00
75157;BME280;63736;50.076;8.198;2022-10-16T03:43:16;99317.19;;;14.46;100.00
75157;BME280;63736;50.076;8.198;2022-10-16T03:45:41;99320.69;;;14.47;100.00
75157;BME280;63736;50.076;8.198;2022-10-16T03:48:06;99327.75;;;14.48;100.00
75157;BME280;63736;50.076;8.198;2022-10-16T03:50:31;99323.06;;;14.50;100.00
75157;BME280;63736;50.076;8.198;2022-10-16T03:52:57;99329.28;;;14.50;100.00
75157;BME280;63736;50.076;8.198;2022-10-16T03:55:22;99313.84;;;14.52;100.00
75157;BME280;63736;50.076;8.198;2022-10-16T03:57:47;99317.38;;;14.53;100.00
75157;BME280;63736;50.076;8.198;2022-10-16T04:00:13;99318.91;;;14.56;100.00
75157;BME280;63736;50.076;8.198;2022-10-16T04:02:38;99323.41;;;14.55;100.00
75157;BME280;63736;50.076;8.198;2022-10-16T04:05:04;99327.81;;;14.56;100.00
75157;BME280;63736;50.076;8.198;2022-10-16T04:07:29;99320.59;;;14.57;100.00
75157;BME280;63736;50.076;8.198;2022-10-16T04:09:55;99328.66;;;14.57;100.00
75157;BME280;63736;50.076;8.198;2022-10-16T04:12:20;99328.50;;;14.58;100.00
75157;BME280;63736;50.076;8.198;2022-10-16T04:14:46;99333.72;;;14.60;100.00
75157;BME280;63736;50.076;8.198;2022-10-16T04:17:11;99327.34;;;14.61;100.00
75157;BME280;63736;50.076;8.198;2022-10-16T04:19:36;99325.47;;;14.61;100.00
75157;BME280;63736;50.076;8.198;2022-10-16T04:22:02;99329.03;;;14.62;100.00
75157;BME280;63736;50.076;8.198;2022-10-16T04:24:27;99332.53;;;14.62;100.00
75157;BME280;63736;50.076;8.198;2022-10-16T04:26:52;99338.75;;;14.63;100.00
75157;BME280;63736;50.076;8.198;2022-10-16T04:29:17;99340.31;;;14.65;100.00
75157;BME280;63736;50.076;8.198;2022-10-16T04:31:43;99332.09;;;14.67;100.00
75157;BME280;63736;50.076;8.198;2022-10-16T04:34:08;99338.47;;;14.66;100.00
75157;BME280;63736;50.076;8.198;2022-10-16T04:36:33;99335.63;;;14.67;100.00
75157;BME280;63736;50.076;8.198;2022-10-16T04:38:59;99342.53;;;14.70;100.00
75157;BME280;63736;50.076;8.198;2022-10-16T04:41:24;99336.16;;;14.71;100.00
75157;BME280;63736;50.076;8.198;2022-10-16T04:43:49;99342.38;;;14.72;100.00
75157;BME280;63736;50.076;8.198;2022-10-16T04:46:15;99341.38;;;14.73;100.00
75157;BME280;63736;50.076;8.198;2022-10-16T04:48:40;99358.16;;;14.75;100.00
75157;BME280;63736;50.076;8.198;2022-10-16T04:51:05;99354.66;;;14.74;100.00
75157;BME280;63736;50.076;8.198;2022-10-16T04:53:31;99358.88;;;14.77;100.00
75157;BME280;63736;50.076;8.198;2022-10-16T04:55:56;99354.31;;;14.77;100.00
75157;BME280;63736;50.076;8.198;2022-10-16T04:58:22;99357.88;;;14.78;100.00
75157;BME280;63736;50.076;8.198;2022-10-16T05:00:47;99348.81;;;14.79;100.00
75157;BME280;63736;50.076;8.198;2022-10-16T05:03:13;99358.69;;;14.78;100.00
75157;BME280;63736;50.076;8.198;2022-10-16T05:05:42;99350.31;;;14.81;100.00
75157;BME280;63736;50.076;8.198;2022-10-16T05:08:09;99345.25;;;14.78;100.00
75157;BME280;63736;50.076;8.198;2022-10-16T05:10:34;99352.50;;;14.78;100.00
75157;BME280;63736;50.076;8.198;2022-10-16T05:12:59;99350.97;;;14.75;100.00
75157;BME280;63736;50.076;8.198;2022-10-16T05:15:24;99347.41;;;14.75;100.00
75157;BME280;63736;50.076;8.198;2022-10-16T05:17:53;99353.81;;;14.74;100.00
75157;BME280;63736;50.076;8.198;2022-10-16T05:20:18;99356.81;;;14.70;100.00
75157;BME280;63736;50.076;8.198;2022-10-16T05:22:44;99350.59;;;14.70;100.00
75157;BME280;63736;50.076;8.198;2022-10-16T05:25:09;99341.00;;;14.67;100.00
75157;BME280;63736;50.076;8.198;2022-10-16T05:27:34;99350.91;;;14.67;100.00
75157;BME280;63736;50.076;8.198;2022-10-16T05:29:59;99354.44;;;14.67;100.00
75157;BME280;63736;50.076;8.198;2022-10-16T05:32:25;99361.53;;;14.68;100.00
75157;BME280;63736;50.076;8.198;2022-10-16T05:34:50;99359.66;;;14.69;100.00
75157;BME280;63736;50.076;8.198;2022-10-16T05:37:16;99363.19;;;14.69;100.00
75157;BME280;63736;50.076;8.198;2022-10-16T05:39:41;99364.88;;;14.70;100.00
75157;BME280;63736;50.076;8.198;2022-10-16T05:42:07;99362.00;;;14.72;100.00
75157;BME280;63736;50.076;8.198;2022-10-16T05:44:32;99374.31;;;14.75;100.00
75157;BME280;63736;50.076;8.198;2022-10-16T05:46:58;99385.75;;;14.77;100.00
75157;BME280;63736;50.076;8.198;2022-10-16T05:49:23;99383.75;;;14.79;100.00
75157;BME280;63736;50.076;8.198;2022-10-16T05:51:48;99385.59;;;14.78;100.00
75157;BME280;63736;50.076;8.198;2022-10-16T05:54:13;99382.72;;;14.80;100.00
75157;BME280;63736;50.076;8.198;2022-10-16T05:56:39;99384.44;;;14.81;100.00
75157;BME280;63736;50.076;8.198;2022-10-16T05:59:05;99383.25;;;14.83;100.00
75157;BME280;63736;50.076;8.198;2022-10-16T06:01:30;99390.34;;;14.84;100.00
75157;BME280;63736;50.076;8.198;2022-10-16T06:03:56;99393.72;;;14.86;100.00
75157;BME280;63736;50.076;8.198;2022-10-16T06:06:24;99400.63;;;14.89;100.00
75157;BME280;63736;50.076;8.198;2022-10-16T06:08:52;99403.31;;;14.89;100.00
75157;BME280;63736;50.076;8.198;2022-10-16T06:11:23;99412.22;;;14.90;100.00
75157;BME280;63736;50.076;8.198;2022-10-16T06:13:50;99410.22;;;14.92;100.00
75157;BME280;63736;50.076;8.198;2022-10-16T06:16:16;99405.66;;;14.92;100.00
75157;BME280;63736;50.076;8.198;2022-10-16T06:18:41;99400.13;;;14.94;100.00
75157;BME280;63736;50.076;8.198;2022-10-16T06:21:21;99403.00;;;15.00;100.00
75157;BME280;63736;50.076;8.198;2022-10-16T06:23:47;99394.28;;;14.98;100.00
75157;BME280;63736;50.076;8.198;2022-10-16T06:26:14;99396.97;;;14.98;100.00
75157;BME280;63736;50.076;8.198;2022-10-16T06:28:40;99394.28;;;14.98;100.00
75157;BME280;63736;50.076;8.198;2022-10-16T06:31:07;99410.09;;;15.01;100.00
75157;BME280;63736;50.076;8.198;2022-10-16T06:33:33;99401.03;;;15.02;100.00
75157;BME280;63736;50.076;8.198;2022-10-16T06:36:03;99395.47;;;15.04;100.00
75157;BME280;63736;50.076;8.198;2022-10-16T06:38:29;99406.06;;;15.06;100.00
75157;BME280;63736;50.076;8.198;2022-10-16T06:40:55;99410.44;;;15.07;100.00
75157;BME280;63736;50.076;8.198;2022-10-16T06:43:20;99420.88;;;15.10;100.00
75157;BME280;63736;50.076;8.198;2022-10-16T06:45:56;99413.16;;;15.15;100.00
75157;BME280;63736;50.076;8.198;2022-10-16T06:48:22;99422.94;;;15.16;100.00
75157;BME280;63736;50.076;8.198;2022-10-16T06:53:27;99426.97;;;15.20;100.00
75157;BME280;63736;50.076;8.198;2022-10-16T06:55:53;99421.47;;;15.22;100.00
75157;BME280;63736;50.076;8.198;2022-10-16T06:58:19;99420.44;;;15.23;100.00
75157;BME280;63736;50.076;8.198;2022-10-16T07:00:44;99421.28;;;15.23;100.00
75157;BME280;63736;50.076;8.198;2022-10-16T07:03:09;99424.81;;;15.24;100.00
75157;BME280;63736;50.076;8.198;2022-10-16T07:05:39;99440.50;;;15.28;100.00
75157;BME280;63736;50.076;8.198;2022-10-16T07:08:04;99437.63;;;15.30;100.00
75157;BME280;63736;50.076;8.198;2022-10-16T07:10:30;99448.06;;;15.33;100.00
75157;BME280;63736;50.076;8.198;2022-10-16T07:12:56;99455.81;;;15.36;100.00
75157;BME280;63736;50.076;8.198;2022-10-16T07:15:21;99465.25;;;15.40;100.00
75157;BME280;63736;50.076;8.198;2022-10-16T07:17:46;99465.91;;;15.42;100.00
75157;BME280;63736;50.076;8.198;2022-10-16T07:20:12;99472.00;;;15.44;100.00
75157;BME280;63736;50.076;8.198;2022-10-16T07:22:37;99476.22;;;15.47;100.00
75157;BME280;63736;50.076;8.198;2022-10-16T07:25:02;99476.56;;;15.52;100.00
75157;BME280;63736;50.076;8.198;2022-10-16T07:27:28;99485.19;;;15.56;100.00
75157;BME280;63736;50.076;8.198;2022-10-16T07:29:53;99484.66;;;15.60;100.00
75157;BME280;63736;50.076;8.198;2022-10-16T07:32:18;99488.72;;;15.64;100.00
75157;BME280;63736;50.076;8.198;2022-10-16T07:34:44;99485.72;;;15.67;100.00
75157;BME280;63736;50.076;8.198;2022-10-16T07:37:10;99496.00;;;15.72;100.00
75157;BME280;63736;50.076;8.198;2022-10-16T07:39:36;99493.66;;;15.77;100.00
75157;BME280;63736;50.076;8.198;2022-10-16T07:42:01;99496.03;;;15.80;100.00
75157;BME280;63736;50.076;8.198;2022-10-16T07:44:26;99500.13;;;15.84;100.00
75157;BME280;63736;50.076;8.198;2022-10-16T07:46:51;99513.78;;;15.91;100.00
75157;BME280;63736;50.076;8.198;2022-10-16T07:49:17;99517.81;;;15.95;100.00
75157;BME280;63736;50.076;8.198;2022-10-16T07:51:42;99524.72;;;15.98;100.00
75157;BME280;63736;50.076;8.198;2022-10-16T07:54:08;99522.56;;;16.01;100.00
75157;BME280;63736;50.076;8.198;2022-10-16T07:56:34;99523.06;;;16.05;100.00
75157;BME280;63736;50.076;8.198;2022-10-16T07:58:59;99524.94;;;16.13;100.00
75157;BME280;63736;50.076;8.198;2022-10-16T08:01:25;99529.50;;;16.21;100.00
75157;BME280;63736;50.076;8.198;2022-10-16T08:03:51;99539.47;;;16.28;100.00
75157;BME280;63736;50.076;8.198;2022-10-16T08:06:18;99541.81;;;16.31;100.00
75157;BME280;63736;50.076;8.198;2022-10-16T08:08:43;99552.59;;;16.31;100.00
75157;BME280;63736;50.076;8.198;2022-10-16T08:11:09;99549.91;;;16.31;100.00
75157;BME280;63736;50.076;8.198;2022-10-16T08:13:34;99560.69;;;16.31;100.00
75157;BME280;63736;50.076;8.198;2022-10-16T08:16:00;99551.78;;;16.31;100.00
75157;BME280;63736;50.076;8.198;2022-10-16T08:18:25;99550.59;;;16.33;100.00
75157;BME280;63736;50.076;8.198;2022-10-16T08:20:58;99547.91;;;16.42;100.00
75157;BME280;63736;50.076;8.198;2022-10-16T08:23:25;99547.91;;;16.42;100.00
75157;BME280;63736;50.076;8.198;2022-10-16T08:25:52;99550.25;;;16.45;100.00
75157;BME280;63736;50.076;8.198;2022-10-16T08:28:18;99555.66;;;16.45;100.00
75157;BME280;63736;50.076;8.198;2022-10-16T08:30:44;99575.88;;;16.41;100.00
75157;BME280;63736;50.076;8.198;2022-10-16T08:33:09;99569.97;;;16.37;100.00
75157;BME280;63736;50.076;8.198;2022-10-16T08:35:34;99580.91;;;16.35;100.00
75157;BME280;63736;50.076;8.198;2022-10-16T08:38:00;99584.59;;;16.34;100.00
75157;BME280;63736;50.076;8.198;2022-10-16T08:40:29;99596.09;;;16.37;100.00
75157;BME280;63736;50.076;8.198;2022-10-16T08:45:57;99599.13;;;16.33;100.00
75157;BME280;63736;50.076;8.198;2022-10-16T08:48:30;99598.25;;;16.33;100.00
75157;BME280;63736;50.076;8.198;2022-10-16T08:51:01;99592.88;;;16.33;100.00
75157;BME280;63736;50.076;8.198;2022-10-16T08:53:30;99593.72;;;16.33;100.00
75157;BME280;63736;50.076;8.198;2022-10-16T08:55:56;99596.09;;;16.37;100.00
75157;BME280;63736;50.076;8.198;2022-10-16T08:58:27;99601.31;;;16.46;100.00
75157;BME280;63736;50.076;8.198;2022-10-16T09:00:54;99606.69;;;16.46;100.00
75157;BME280;63736;50.076;8.198;2022-10-16T09:06:17;99605.69;;;16.47;100.00
75157;BME280;63736;50.076;8.198;2022-10-16T09:09:11;99618.19;;;16.48;100.00
75157;BME280;63736;50.076;8.198;2022-10-16T09:17:11;99640.75;;;16.47;100.00
75157;BME280;63736;50.076;8.198;2022-10-16T09:19:45;99632.00;;;16.45;100.00
75157;BME280;63736;50.076;8.198;2022-10-16T09:22:16;99637.22;;;16.47;100.00
75157;BME280;63736;50.076;8.198;2022-10-16T09:24:42;99634.34;;;16.48;100.00
75157;BME280;63736;50.076;8.198;2022-10-16T09:27:12;99645.84;;;16.59;100.00
75157;BME280;63736;50.076;8.198;2022-10-16T09:29:38;99632.06;;;16.70;100.00
75157;BME280;63736;50.076;8.198;2022-10-16T09:32:11;99638.84;;;16.91;100.00
75157;BME280;63736;50.076;8.198;2022-10-16T09:34:42;99638.16;;;16.97;100.00
75157;BME280;63736;50.076;8.198;2022-10-16T09:37:13;99645.78;;;17.01;100.00
75157;BME280;63736;50.076;8.198;2022-10-16T09:39:50;99651.81;;;17.04;100.00
75157;BME280;63736;50.076;8.198;2022-10-16T09:42:34;99640.88;;;17.05;100.00
75157;BME280;63736;50.076;8.198;2022-10-16T09:45:01;99648.63;;;17.16;100.00
75157;BME280;63736;50.076;8.198;2022-10-16T09:47:29;99653.84;;;17.34;100.00
75157;BME280;63736;50.076;8.198;2022-10-16T09:49:59;99657.06;;;17.55;100.00
75157;BME280;63736;50.076;8.198;2022-10-16T09:52:28;99651.13;;;17.67;100.00
75157;BME280;63736;50.076;8.198;2022-10-16T09:54:54;99655.28;;;17.87;100.00
75157;BME280;63736;50.076;8.198;2022-10-16T09:57:21;99659.31;;;18.15;100.00
75157;BME280;63736;50.076;8.198;2022-10-16T09:59:48;99654.53;;;18.57;100.00
75157;BME280;63736;50.076;8.198;2022-10-16T10:02:15;99646.16;;;18.98;100.00
75157;BME280;63736;50.076;8.198;2022-10-16T10:04:51;99664.41;;;19.43;100.00
75157;BME280;63736;50.076;8.198;2022-10-16T10:07:43;99655.78;;;19.77;100.00
75157;BME280;63736;50.076;8.198;2022-10-16T10:10:21;99652.06;;;19.78;100.00
75157;BME280;63736;50.076;8.198;2022-10-16T10:12:47;99646.81;;;19.77;100.00
75157;BME280;63736;50.076;8.198;2022-10-16T10:15:13;99650.16;;;19.79;100.00
75157;BME280;63736;50.076;8.198;2022-10-16T10:20:32;99648.63;;;20.00;100.00
75157;BME280;63736;50.076;8.198;2022-10-16T10:23:00;99647.38;;;20.32;100.00
75157;BME280;63736;50.076;8.198;2022-10-16T10:25:48;99655.06;;;20.80;100.00
75157;BME280;63736;50.076;8.198;2022-10-16T10:28:27;99649.88;;;21.28;100.00
75157;BME280;63736;50.076;8.198;2022-10-16T10:36:34;99649.91;;;22.27;100.00
75157;BME280;63736;50.076;8.198;2022-10-16T10:39:04;99656.31;;;22.41;100.00
75157;BME280;63736;50.076;8.198;2022-10-16T10:52:43;99663.03;;;22.10;100.00
75157;BME280;63736;50.076;8.198;2022-10-16T11:00:57;99666.16;;;21.50;100.00
75157;BME280;63736;50.076;8.198;2022-10-16T11:09:15;99646.41;;;21.63;100.00
75157;BME280;63736;50.076;8.198;2022-10-16T11:11:49;99649.63;;;21.73;100.00
75157;BME280;63736;50.076;8.198;2022-10-16T11:15:03;99653.19;;;21.74;100.00
75157;BME280;63736;50.076;8.198;2022-10-16T11:17:18;99650.84;;;21.64;100.00
75157;BME280;63736;50.076;8.198;2022-10-16T11:19:58;99647.69;;;21.67;100.00
75157;BME280;63736;50.076;8.198;2022-10-16T11:23:25;99652.72;;;21.70;100.00
75157;BME280;63736;50.076;8.198;2022-10-16T11:25:43;99652.06;;;21.61;100.00
75157;BME280;63736;50.076;8.198;2022-10-16T11:28:27;99654.38;;;21.65;100.00
75157;BME280;63736;50.076;8.198;2022-10-16T11:31:02;99652.06;;;21.61;100.00
75157;BME280;63736;50.076;8.198;2022-10-16T11:38:54;99647.66;;;21.39;100.00
75157;BME280;63736;50.076;8.198;2022-10-16T11:49:50;99642.25;;;21.67;100.00
75157;BME280;63736;50.076;8.198;2022-10-16T11:52:44;99650.63;;;21.66;100.00
75157;BME280;63736;50.076;8.198;2022-10-16T11:55:21;99656.50;;;21.69;100.00
75157;BME280;63736;50.076;8.198;2022-10-16T11:57:52;99658.16;;;21.70;100.00
75157;BME280;63736;50.076;8.198;2022-10-16T12:00:31;99650.66;;;21.72;100.00
75157;BME280;63736;50.076;8.198;2022-10-16T12:03:26;99648.97;;;21.71;100.00
75157;BME280;63736;50.076;8.198;2022-10-16T12:06:20;99652.06;;;21.61;100.00
75157;BME280;63736;50.076;8.198;2022-10-16T12:08:49;99650.22;;;21.47;100.00
75157;BME280;63736;50.076;8.198;2022-10-16T12:11:31;99655.63;;;21.40;100.00
75157;BME280;63736;50.076;8.198;2022-10-16T12:16:55;99663.13;;;21.38;100.00
75157;BME280;63736;50.076;8.198;2022-10-16T12:19:22;99670.38;;;21.31;100.00
75157;BME280;63736;50.076;8.198;2022-10-16T12:21:50;99675.75;;;21.24;100.00
75157;BME280;63736;50.076;8.198;2022-10-16T12:24:39;99670.63;;;21.15;100.00
75157;BME280;63736;50.076;8.198;2022-10-16T12:27:36;99666.06;;;21.15;100.00
75157;BME280;63736;50.076;8.198;2022-10-16T12:30:04;99669.88;;;21.21;100.00
75157;BME280;63736;50.076;8.198;2022-10-16T12:32:35;99670.91;;;21.20;100.00
75157;BME280;63736;50.076;8.198;2022-10-16T12:35:03;99670.84;;;21.13;100.00
75157;BME280;63736;50.076;8.198;2022-10-16T12:37:33;99682.31;;;21.08;100.00
75157;BME280;63736;50.076;8.198;2022-10-16T12:39:59;99674.09;;;21.02;100.00
75157;BME280;63736;50.076;8.198;2022-10-16T12:44:54;99672.94;;;21.11;100.00
75157;BME280;63736;50.076;8.198;2022-10-16T12:49:52;99680.63;;;21.07;100.00
75157;BME280;63736;50.076;8.198;2022-10-16T12:54:57;99675.44;;;21.12;100.00
75157;BME280;63736;50.076;8.198;2022-10-16T13:00:24;99675.44;;;21.12;100.00
75157;BME280;63736;50.076;8.198;2022-10-16T13:11:25;99678.78;;;21.15;100.00
75157;BME280;63736;50.076;8.198;2022-10-16T13:22:23;99678.00;;;21.42;100.00
75157;BME280;63736;50.076;8.198;2022-10-16T13:25:20;99669.66;;;21.44;100.00
75157;BME280;63736;50.076;8.198;2022-10-16T13:27:55;99664.75;;;21.33;100.00
75157;BME280;63736;50.076;8.198;2022-10-16T13:30:29;99666.56;;;21.25;100.00
75157;BME280;63736;50.076;8.198;2022-10-16T13:33:01;99668.84;;;21.22;100.00
75157;BME280;63736;50.076;8.198;2022-10-16T13:35:30;99670.72;;;21.21;100.00
75157;BME280;63736;50.076;8.198;2022-10-16T13:38:12;99667.16;;;21.21;100.00
75157;BME280;63736;50.076;8.198;2022-10-16T13:40:58;99672.97;;;21.18;100.00
75157;BME280;63736;50.076;8.198;2022-10-16T13:46:07;99663.66;;;21.05;100.00
75157;BME280;63736;50.076;8.198;2022-10-16T13:48:36;99658.81;;;21.01;100.00
75157;BME280;63736;50.076;8.198;2022-10-16T13:51:16;99650.28;;;21.04;100.00
75157;BME280;63736;50.076;8.198;2022-10-16T13:53:43;99652.09;;;20.96;100.00
75157;BME280;63736;50.076;8.198;2022-10-16T13:56:29;99645.63;;;20.98;100.00
75157;BME280;63736;50.076;8.198;2022-10-16T13:59:03;99640.59;;;20.94;100.00
75157;BME280;63736;50.076;8.198;2022-10-16T14:01:42;99655.84;;;20.95;100.00
75157;BME280;63736;50.076;8.198;2022-10-16T14:04:10;99662.72;;;20.91;100.00
75157;BME280;63736;50.076;8.198;2022-10-16T14:06:40;99668.50;;;20.88;100.00
75157;BME280;63736;50.076;8.198;2022-10-16T14:09:29;99667.22;;;20.84;100.00
75157;BME280;63736;50.076;8.198;2022-10-16T14:14:20;99675.56;;;20.83;100.00
75157;BME280;63736;50.076;8.198;2022-10-16T14:16:45;99673.66;;;20.83;100.00
75157;BME280;63736;50.076;8.198;2022-10-16T14:19:28;99663.06;;;20.88;100.00
75157;BME280;63736;50.076;8.198;2022-10-16T14:21:55;99657.00;;;20.86;100.00
75157;BME280;63736;50.076;8.198;2022-10-16T14:26:56;99667.88;;;20.86;100.00
75157;BME280;63736;50.076;8.198;2022-10-16T14:29:23;99662.44;;;20.86;100.00
75157;BME280;63736;50.076;8.198;2022-10-16T14:32:04;99660.81;;;20.92;100.00
75157;BME280;63736;50.076;8.198;2022-10-16T14:34:38;99667.53;;;20.96;100.00
75157;BME280;63736;50.076;8.198;2022-10-16T14:37:24;99664.19;;;20.94;100.00
75157;BME280;63736;50.076;8.198;2022-10-16T14:39:50;99666.19;;;20.85;100.00
75157;BME280;63736;50.076;8.198;2022-10-16T14:42:17;99673.03;;;20.81;100.00
75157;BME280;63736;50.076;8.198;2022-10-16T14:44:44;99672.78;;;20.76;100.00
75157;BME280;63736;50.076;8.198;2022-10-16T14:47:14;99670.41;;;20.73;100.00
75157;BME280;63736;50.076;8.198;2022-10-16T14:49:42;99664.63;;;20.61;100.00